Pittsburgh, Pennsylvania
Traffic Map
Current Weather Conditions
Pittsburgh, Pennsylvania
Clear
Clear
23°
Feels Like: 23°
Wind Chill: 23° Ceiling: Unl
Heat Index: 23° Visibility: 10mi
Dew Point: 16° Wind: 6mph
Humidity: 64% Direction: 160° (SSE)
Pressure: 30.08in Gusts: 0mph
Raw Report DataKAGC 270253Z AUTO 16005KT 10SM CLR 23/16 A3008 RMK AO2 SLP181 T02280156 53001 TSNO
Traffic Incident Summary
Active as of:
Severity:
Category:
InformationThere was an issue retrieving the traffic information for this location. Please try a different location or try again shortly.
Advertisements
Track Severe Weather on mobile